createdAt,value
2018-09-20T00:01:22.289Z,9.63
2018-09-20T00:03:51.910Z,9.07
2018-09-20T00:06:21.173Z,9.53
2018-09-20T00:08:50.029Z,9.70
2018-09-20T00:11:18.822Z,9.93
2018-09-20T00:13:48.100Z,9.33
2018-09-20T00:16:16.913Z,9.60
2018-09-20T00:18:46.204Z,9.43
2018-09-20T00:21:15.450Z,9.53
2018-09-20T00:23:44.288Z,9.87
2018-09-20T00:26:13.156Z,10.17
2018-09-20T00:28:41.929Z,9.40
2018-09-20T00:31:10.689Z,10.20
2018-09-20T00:33:39.601Z,10.10
2018-09-20T00:36:09.054Z,10.50
2018-09-20T00:38:39.025Z,11.00
2018-09-20T00:41:08.533Z,10.73
2018-09-20T00:43:37.266Z,11.20
2018-09-20T00:46:06.414Z,11.23
2018-09-20T00:48:35.236Z,11.23
2018-09-20T00:51:04.121Z,11.37
2018-09-20T00:53:33.041Z,10.07
2018-09-20T00:56:01.930Z,10.50
2018-09-20T00:58:32.109Z,10.60
2018-09-20T01:01:01.750Z,10.30
2018-09-20T01:03:31.280Z,11.30
2018-09-20T01:06:00.097Z,10.70
2018-09-20T01:08:30.312Z,11.43
2018-09-20T01:10:59.217Z,10.90
2018-09-20T01:13:28.697Z,10.30
2018-09-20T01:15:57.521Z,11.43
2018-09-20T01:18:26.393Z,11.27
2018-09-20T01:20:55.217Z,11.23
2018-09-20T01:23:23.980Z,11.10
2018-09-20T01:25:52.761Z,11.20
2018-09-20T01:28:21.753Z,11.40
2018-09-20T01:30:51.357Z,10.87
2018-09-20T01:33:21.023Z,11.37
2018-09-20T01:35:50.189Z,11.23
2018-09-20T01:38:19.027Z,11.00
2018-09-20T01:40:47.828Z,10.97
2018-09-20T01:43:17.082Z,11.40
2018-09-20T01:45:45.814Z,11.03
2018-09-20T01:48:14.645Z,11.73
2018-09-20T01:50:43.485Z,11.33
2018-09-20T01:53:13.082Z,11.13
2018-09-20T01:55:42.718Z,12.30
2018-09-20T01:58:11.507Z,11.20
2018-09-20T02:00:41.092Z,11.70
2018-09-20T02:03:09.877Z,12.00
2018-09-20T02:05:38.682Z,11.67
2018-09-20T02:08:07.707Z,11.13
2018-09-20T02:10:37.221Z,11.27
2018-09-20T02:13:05.972Z,10.50
2018-09-20T02:15:36.230Z,11.37
2018-09-20T02:18:04.929Z,11.43
2018-09-20T02:20:34.261Z,11.90
2018-09-20T02:23:03.916Z,11.43
2018-09-20T02:25:33.593Z,11.00
2018-09-20T02:28:02.323Z,12.27
2018-09-20T02:30:31.239Z,11.60
2018-09-20T02:33:00.141Z,12.33
2018-09-20T02:35:28.845Z,12.63
2018-09-20T02:37:58.537Z,12.30
2018-09-20T02:40:27.980Z,11.83
2018-09-20T02:42:57.538Z,12.60
2018-09-20T02:45:26.521Z,12.47
2018-09-20T02:47:55.418Z,12.40
2018-09-20T02:50:24.667Z,12.20
2018-09-20T02:52:53.472Z,12.23
2018-09-20T02:55:22.242Z,12.23
2018-09-20T02:57:51.241Z,11.07
2018-09-20T03:00:20.269Z,11.03
2018-09-20T03:02:49.858Z,11.17
2018-09-20T03:05:18.652Z,11.50
2018-09-20T03:07:47.428Z,11.50
2018-09-20T03:10:16.445Z,11.17
2018-09-20T03:12:46.065Z,11.20
2018-09-20T03:15:14.920Z,11.60
2018-09-20T03:17:43.677Z,12.47
2018-09-20T03:20:12.706Z,11.13
2018-09-20T03:22:41.585Z,12.00
2018-09-20T03:25:10.623Z,12.50
2018-09-20T03:27:39.398Z,13.13
2018-09-20T03:30:08.249Z,12.37
2018-09-20T03:32:37.563Z,12.53
2018-09-20T03:35:06.473Z,11.40
2018-09-20T03:37:35.260Z,12.90
2018-09-20T03:40:04.245Z,12.90
2018-09-20T03:42:33.709Z,13.20
2018-09-20T03:45:03.413Z,13.20
2018-09-20T03:47:32.857Z,13.80
2018-09-20T03:50:01.726Z,14.20
2018-09-20T03:52:30.578Z,13.73
2018-09-20T03:54:59.442Z,14.87
2018-09-20T03:57:28.323Z,14.70
2018-09-20T03:59:57.220Z,14.10
2018-09-20T04:02:26.066Z,14.40
2018-09-20T04:04:55.005Z,13.80
2018-09-20T04:07:23.929Z,12.37
2018-09-20T04:09:53.861Z,14.07
2018-09-20T04:12:22.701Z,12.67
2018-09-20T04:14:51.564Z,12.80
2018-09-20T04:17:34.696Z,13.63
2018-09-20T04:20:03.778Z,13.20
2018-09-20T04:22:33.467Z,12.67
2018-09-20T04:25:02.365Z,12.80
2018-09-20T04:27:31.445Z,12.47
2018-09-20T04:30:01.197Z,13.27
2018-09-20T04:32:30.126Z,13.47
2018-09-20T04:34:59.143Z,13.70
2018-09-20T04:37:27.976Z,13.40
2018-09-20T04:39:57.124Z,13.50
2018-09-20T04:42:26.948Z,13.37
2018-09-20T04:44:55.677Z,14.00
2018-09-20T04:47:24.477Z,13.93
2018-09-20T04:49:53.512Z,14.27
2018-09-20T04:52:22.354Z,13.80
2018-09-20T04:54:51.223Z,13.43
2018-09-20T04:57:20.186Z,14.30
2018-09-20T04:59:49.686Z,15.30
2018-09-20T05:02:19.193Z,15.23
2018-09-20T05:04:48.487Z,13.73
2018-09-20T05:07:17.326Z,11.93
2018-09-20T05:09:46.385Z,12.50
2018-09-20T05:12:15.249Z,12.33
2018-09-20T05:14:45.012Z,12.67
2018-09-20T05:17:14.757Z,14.20
2018-09-20T05:19:43.620Z,13.60
2018-09-20T05:22:12.685Z,13.50
2018-09-20T05:24:42.166Z,13.17
2018-09-20T05:27:11.705Z,13.80
2018-09-20T05:29:40.994Z,13.30
2018-09-20T05:32:09.864Z,14.53
2018-09-20T05:34:38.774Z,12.83
2018-09-20T05:37:07.653Z,13.80
2018-09-20T05:39:36.569Z,13.80
2018-09-20T05:42:05.580Z,13.77
2018-09-20T05:44:34.796Z,13.33
2018-09-20T05:47:04.640Z,14.83
2018-09-20T05:49:33.446Z,13.60
2018-09-20T05:52:02.976Z,12.80
2018-09-20T05:54:32.858Z,12.33
2018-09-20T05:57:01.749Z,12.17
2018-09-20T05:59:30.784Z,12.20
2018-09-20T06:01:59.674Z,12.60
2018-09-20T06:04:30.194Z,13.00
2018-09-20T06:06:59.653Z,12.70
2018-09-20T06:09:29.063Z,13.17
2018-09-20T06:11:57.868Z,13.03
2018-09-20T06:14:26.847Z,12.73
2018-09-20T06:16:55.829Z,12.07
2018-09-20T06:19:24.760Z,12.93
2018-09-20T06:21:53.980Z,12.17
2018-09-20T06:24:23.460Z,11.80
2018-09-20T06:26:52.973Z,13.60
2018-09-20T06:29:22.642Z,13.80
2018-09-20T06:31:51.454Z,12.90
2018-09-20T06:34:20.375Z,13.23
2018-09-20T06:36:51.367Z,12.87
2018-09-20T06:39:20.157Z,13.03
2018-09-20T06:41:48.974Z,12.83
2018-09-20T06:44:18.792Z,12.40
2018-09-20T06:46:47.709Z,13.23
2018-09-20T06:49:17.206Z,11.60
2018-09-20T06:51:46.796Z,11.07
2018-09-20T06:54:15.618Z,11.73
2018-09-20T06:56:45.737Z,11.30
2018-09-20T06:59:16.264Z,12.07
2018-09-20T07:01:45.003Z,11.43
2018-09-20T07:04:13.816Z,11.77
2018-09-20T07:06:42.817Z,11.13
2018-09-20T07:09:14.501Z,11.17
2018-09-20T07:11:43.859Z,10.90
2018-09-20T07:14:12.779Z,11.13
2018-09-20T07:16:41.640Z,10.40
2018-09-20T07:19:11.688Z,10.27
2018-09-20T07:21:40.633Z,11.40
2018-09-20T07:24:09.601Z,10.90
2018-09-20T07:26:38.357Z,10.17
2018-09-20T07:29:07.765Z,9.87
2018-09-20T07:31:36.467Z,10.63
2018-09-20T07:34:05.368Z,9.37
2018-09-20T07:36:34.414Z,10.83
2018-09-20T07:39:04.034Z,10.10
2018-09-20T07:41:32.865Z,10.83
2018-09-20T07:44:02.100Z,10.50
2018-09-20T07:46:30.930Z,10.00
2018-09-20T07:48:59.861Z,9.60
2018-09-20T07:51:28.781Z,10.10
2018-09-20T07:53:58.433Z,10.10
2018-09-20T07:56:27.180Z,10.13
2018-09-20T07:58:56.017Z,10.77
2018-09-20T08:01:42.957Z,10.00
2018-09-20T08:04:11.678Z,9.60
2018-09-20T08:06:40.725Z,9.73
2018-09-20T08:09:11.404Z,9.80
2018-09-20T08:11:41.939Z,8.83
2018-09-20T08:14:10.774Z,7.57
2018-09-20T08:16:39.663Z,8.10
2018-09-20T08:19:08.505Z,6.87
2018-09-20T08:21:37.380Z,7.47
2018-09-20T08:24:06.298Z,7.17
2018-09-20T08:26:35.200Z,7.73
2018-09-20T08:29:04.052Z,6.97
2018-09-20T08:31:32.925Z,6.67
2018-09-20T08:34:01.845Z,6.60
2018-09-20T08:36:31.342Z,5.60
2018-09-20T08:39:00.179Z,5.87
2018-09-20T08:41:29.441Z,5.50
2018-09-20T08:43:58.996Z,5.67
2018-09-20T08:46:28.320Z,6.00
2018-09-20T08:48:58.267Z,5.53
2018-09-20T08:51:27.109Z,5.30
2018-09-20T08:53:55.791Z,5.50
2018-09-20T08:56:24.837Z,5.20
2018-09-20T08:58:53.712Z,4.90
2018-09-20T09:01:22.808Z,5.10
2018-09-20T09:03:52.066Z,5.90
2018-09-20T09:06:20.958Z,5.40
2018-09-20T09:08:49.824Z,5.23
2018-09-20T09:11:18.696Z,5.50
2018-09-20T09:13:47.648Z,5.30
2018-09-20T09:16:17.510Z,5.63
2018-09-20T09:18:46.924Z,5.30
2018-09-20T09:21:15.648Z,5.93
2018-09-20T09:23:44.332Z,5.40
2018-09-20T09:26:13.317Z,5.80
2018-09-20T09:28:42.181Z,5.90
2018-09-20T09:31:11.053Z,5.50
2018-09-20T09:33:40.048Z,5.30
2018-09-20T09:36:09.582Z,5.50
2018-09-20T09:38:38.841Z,6.00
2018-09-20T09:41:08.146Z,5.07
2018-09-20T09:43:36.916Z,5.90
2018-09-20T09:46:05.892Z,5.50
2018-09-20T09:48:34.669Z,4.97
2018-09-20T09:51:03.404Z,5.00
2018-09-20T09:53:32.148Z,5.47
2018-09-20T09:56:00.976Z,4.70
2018-09-20T09:58:29.711Z,5.37
2018-09-20T10:00:58.444Z,5.30
2018-09-20T10:03:27.126Z,4.93
2018-09-20T10:05:55.869Z,5.20
2018-09-20T10:08:24.550Z,4.40
2018-09-20T10:10:53.328Z,4.63
2018-09-20T10:13:22.602Z,4.80
2018-09-20T10:15:51.303Z,5.00
2018-09-20T10:18:21.157Z,5.00
2018-09-20T10:20:50.048Z,5.03
2018-09-20T10:23:18.930Z,5.00
2018-09-20T10:25:47.734Z,4.90
2018-09-20T10:28:17.422Z,5.10
2018-09-20T10:30:46.056Z,4.73
2018-09-20T10:33:15.490Z,4.90
2018-09-20T10:35:44.661Z,4.50
2018-09-20T10:38:13.524Z,4.63
2018-09-20T10:40:42.204Z,4.60
2018-09-20T10:43:10.904Z,3.90
2018-09-20T10:45:39.724Z,3.60
2018-09-20T10:48:08.431Z,4.00
2018-09-20T10:50:37.138Z,4.30
2018-09-20T10:53:05.889Z,4.10
2018-09-20T10:55:34.612Z,3.70
2018-09-20T10:58:04.256Z,3.60
2018-09-20T11:00:32.938Z,3.80
2018-09-20T11:03:01.711Z,3.97
2018-09-20T11:05:30.697Z,3.47
2018-09-20T11:07:59.309Z,3.37
2018-09-20T11:10:28.941Z,3.73
2018-09-20T11:12:57.714Z,4.13
2018-09-20T11:15:26.396Z,4.03
2018-09-20T11:17:55.168Z,3.90
2018-09-20T11:20:23.896Z,3.70
2018-09-20T11:22:53.225Z,3.70
2018-09-20T11:25:22.094Z,3.80
2018-09-20T11:27:50.825Z,3.67
2018-09-20T11:30:19.617Z,3.50
2018-09-20T11:32:48.920Z,3.93
2018-09-20T11:35:17.621Z,3.70
2018-09-20T11:37:46.388Z,3.77
2018-09-20T11:40:15.170Z,3.93
2018-09-20T11:42:43.985Z,4.23
2018-09-20T11:45:12.813Z,4.50
2018-09-20T11:47:42.362Z,4.30
2018-09-20T11:50:11.018Z,4.30
2018-09-20T11:52:40.454Z,4.30
2018-09-20T11:55:09.217Z,4.17
2018-09-20T11:57:38.646Z,4.30
2018-09-20T12:00:07.678Z,4.27
2018-09-20T12:02:36.547Z,3.93
2018-09-20T12:05:05.212Z,4.17
2018-09-20T12:07:33.934Z,4.13
2018-09-20T12:10:02.620Z,4.70
2018-09-20T12:12:31.942Z,4.20
2018-09-20T12:15:00.709Z,4.60
2018-09-20T12:17:30.231Z,4.40
2018-09-20T12:19:58.970Z,4.50
2018-09-20T12:22:28.045Z,4.03
2018-09-20T12:24:57.626Z,4.27
2018-09-20T12:27:27.028Z,4.47
2018-09-20T12:29:55.888Z,4.53
2018-09-20T12:32:25.343Z,3.83
2018-09-20T12:34:54.045Z,4.03
2018-09-20T12:37:27.675Z,4.10
2018-09-20T12:39:56.605Z,4.17
2018-09-20T12:42:25.401Z,4.00
2018-09-20T12:44:54.204Z,3.80
2018-09-20T12:47:22.845Z,4.37
2018-09-20T12:49:52.045Z,4.10
2018-09-20T12:52:20.921Z,4.40
2018-09-20T12:54:49.719Z,4.27
2018-09-20T12:57:18.420Z,4.23
2018-09-20T12:59:47.222Z,3.87
2018-09-20T13:02:16.192Z,4.50
2018-09-20T13:04:45.122Z,4.20
2018-09-20T13:07:13.910Z,4.17
2018-09-20T13:09:42.739Z,4.60
2018-09-20T13:12:12.146Z,4.20
2018-09-20T13:14:41.869Z,4.47
2018-09-20T13:17:10.619Z,4.30
2018-09-20T13:19:39.420Z,4.37
2018-09-20T13:22:08.318Z,4.70
2018-09-20T13:24:37.105Z,4.53
2018-09-20T13:27:05.757Z,4.20
2018-09-20T13:29:34.550Z,4.60
2018-09-20T13:32:03.439Z,4.43
2018-09-20T13:34:32.899Z,4.70
2018-09-20T13:37:01.587Z,4.67
2018-09-20T13:39:30.472Z,4.23
2018-09-20T13:41:59.739Z,4.20
2018-09-20T13:44:28.468Z,4.10
2018-09-20T13:46:58.077Z,4.13
2018-09-20T13:49:27.022Z,4.17
2018-09-20T13:51:55.920Z,4.50
2018-09-20T13:54:24.649Z,4.10
2018-09-20T13:56:54.064Z,4.20
2018-09-20T13:59:23.529Z,4.80
2018-09-20T14:01:52.280Z,4.37
2018-09-20T14:04:21.883Z,4.13
2018-09-20T14:06:56.236Z,4.67
2018-09-20T14:09:25.720Z,4.30
2018-09-20T14:11:55.202Z,4.50
2018-09-20T14:14:23.945Z,4.43
2018-09-20T14:17:00.332Z,4.70
2018-09-20T14:19:29.734Z,4.90
2018-09-20T14:21:59.331Z,4.60
2018-09-20T14:24:28.757Z,4.30
2018-09-20T14:26:57.589Z,4.87
2018-09-20T14:35:22.909Z,4.47
2018-09-20T14:37:52.286Z,4.90
2018-09-20T14:40:22.094Z,5.47
2018-09-20T14:42:50.747Z,5.27
2018-09-20T14:45:20.200Z,4.93
2018-09-20T14:47:49.701Z,4.67
2018-09-20T14:50:18.592Z,4.70
2018-09-20T14:52:47.688Z,4.63
2018-09-20T14:55:17.190Z,5.30
2018-09-20T14:57:45.991Z,5.07
2018-09-20T15:00:15.489Z,5.00
2018-09-20T15:02:44.361Z,4.60
2018-09-20T15:05:13.726Z,5.33
2018-09-20T15:07:42.634Z,5.33
2018-09-20T15:10:11.470Z,4.90
2018-09-20T15:12:40.374Z,4.87
2018-09-20T15:15:09.871Z,5.47
2018-09-20T15:17:39.456Z,5.23
2018-09-20T15:20:08.342Z,5.23
2018-09-20T15:22:37.713Z,5.27
2018-09-20T15:25:16.620Z,5.10
2018-09-20T15:27:46.445Z,5.87
2018-09-20T15:30:15.365Z,4.80
2018-09-20T15:32:44.290Z,5.27
2018-09-20T15:35:13.297Z,5.20
2018-09-20T15:37:42.697Z,5.23
2018-09-20T15:40:11.401Z,4.93
2018-09-20T15:42:40.056Z,5.03
2018-09-20T15:45:09.581Z,5.57
2018-09-20T15:47:39.215Z,4.50
2018-09-20T15:50:08.485Z,5.33
2018-09-20T15:52:37.380Z,5.23
2018-09-20T15:55:06.272Z,4.90
2018-09-20T15:57:34.982Z,5.20
2018-09-20T16:00:04.015Z,5.50
2018-09-20T16:02:32.764Z,5.00
2018-09-20T16:05:04.591Z,5.80
2018-09-20T16:07:33.862Z,5.60
2018-09-20T16:10:16.072Z,5.57
2018-09-20T16:12:45.511Z,5.30
2018-09-20T16:15:14.306Z,5.40
2018-09-20T16:17:43.087Z,5.47
2018-09-20T16:20:12.641Z,5.70
2018-09-20T16:22:41.737Z,5.80
2018-09-20T16:25:10.624Z,5.80
2018-09-20T16:27:40.329Z,5.77
2018-09-20T16:30:23.265Z,6.03
2018-09-20T16:33:29.382Z,5.90
2018-09-20T16:36:03.445Z,5.67
2018-09-20T16:38:51.579Z,5.70
2018-09-20T16:41:37.270Z,6.30
2018-09-20T16:44:06.212Z,6.67
2018-09-20T16:46:35.621Z,6.37
2018-09-20T16:49:04.780Z,5.60
2018-09-20T16:51:35.970Z,6.27
2018-09-20T16:54:04.724Z,6.00
2018-09-20T16:56:33.561Z,6.00
2018-09-20T16:59:02.602Z,6.90
2018-09-20T17:01:31.994Z,7.00
2018-09-20T17:04:01.022Z,6.47
2018-09-20T17:07:05.476Z,6.93
2018-09-20T17:09:34.633Z,7.00
2018-09-20T17:12:03.896Z,7.27
2018-09-20T17:14:33.254Z,7.43
2018-09-20T17:17:02.416Z,7.47
2018-09-20T17:19:31.049Z,7.60
2018-09-20T17:22:00.131Z,7.27
2018-09-20T17:24:28.896Z,7.43
2018-09-20T17:26:59.191Z,7.97
2018-09-20T17:29:27.736Z,8.03
2018-09-20T17:31:56.334Z,7.37
2018-09-20T17:34:26.298Z,7.57
2018-09-20T17:36:55.409Z,7.60
2018-09-20T17:39:26.494Z,7.90
2018-09-20T17:41:58.567Z,8.90
2018-09-20T17:44:27.417Z,8.20
2018-09-20T17:46:56.735Z,7.67
2018-09-20T17:49:25.341Z,8.00
2018-09-20T17:51:54.415Z,7.90
2018-09-20T17:54:23.669Z,8.03
2018-09-20T17:56:52.993Z,8.37
2018-09-20T17:59:22.070Z,8.33
2018-09-20T18:01:50.880Z,7.60
2018-09-20T18:04:19.720Z,7.50
2018-09-20T18:06:54.569Z,8.00
2018-09-20T18:09:23.433Z,7.70
2018-09-20T18:11:52.196Z,8.10
2018-09-20T18:14:21.417Z,7.80
2018-09-20T18:16:52.353Z,7.97
2018-09-20T18:19:21.294Z,7.37
2018-09-20T18:21:50.255Z,8.20
2018-09-20T18:24:19.233Z,7.70
2018-09-20T18:26:48.147Z,7.60
2018-09-20T18:29:17.802Z,8.07
2018-09-20T18:31:46.879Z,7.60
2018-09-20T18:34:15.820Z,7.43
2018-09-20T18:36:44.649Z,8.07
2018-09-20T18:39:14.522Z,8.20
2018-09-20T18:41:45.061Z,8.13
2018-09-20T18:44:13.987Z,7.70
2018-09-20T18:46:42.976Z,9.10
2018-09-20T18:49:12.589Z,9.80
2018-09-20T18:51:41.589Z,8.90
2018-09-20T18:54:10.534Z,9.43
2018-09-20T18:56:40.377Z,9.00
2018-09-20T18:59:09.317Z,10.20
2018-09-20T19:01:38.200Z,8.80
2018-09-20T19:04:07.727Z,8.50
2018-09-20T19:06:36.668Z,8.60
2018-09-20T19:09:08.225Z,8.73
2018-09-20T19:11:37.309Z,8.43
2018-09-20T19:14:07.104Z,8.37
2018-09-20T19:16:35.969Z,9.43
2018-09-20T19:19:04.805Z,9.57
2018-09-20T19:21:34.323Z,10.33
2018-09-20T19:24:03.125Z,9.37
2018-09-20T19:26:32.029Z,8.57
2018-09-20T19:29:00.933Z,9.13
2018-09-20T19:31:29.836Z,9.10
2018-09-20T19:33:58.520Z,9.47
2018-09-20T19:36:27.466Z,9.40
2018-09-20T19:38:57.183Z,8.80
2018-09-20T19:41:26.134Z,8.80
2018-09-20T19:43:54.997Z,9.57
2018-09-20T19:46:23.964Z,9.70
2018-09-20T19:48:52.826Z,9.43
2018-09-20T19:51:21.643Z,9.50
2018-09-20T19:53:50.411Z,9.10
2018-09-20T19:56:19.495Z,9.53
2018-09-20T19:58:48.324Z,9.40
2018-09-20T20:01:17.238Z,8.67
2018-09-20T20:03:47.122Z,9.30
2018-09-20T20:06:16.006Z,10.07
2018-09-20T20:08:45.825Z,9.10
2018-09-20T20:11:14.849Z,9.47
2018-09-20T20:13:44.020Z,9.27
2018-09-20T20:16:12.921Z,8.60
2018-09-20T20:18:41.813Z,9.47
2018-09-20T20:21:10.757Z,8.80
2018-09-20T20:23:39.681Z,8.47
2018-09-20T20:26:09.284Z,8.73
2018-09-20T20:28:38.646Z,9.53
2018-09-20T20:31:07.877Z,9.00
2018-09-20T20:33:36.806Z,9.93
2018-09-20T20:36:05.782Z,9.90
2018-09-20T20:38:35.561Z,10.13
2018-09-20T20:41:04.524Z,10.10
2018-09-20T20:43:33.927Z,10.00
2018-09-20T20:46:03.029Z,9.03
2018-09-20T20:48:32.333Z,9.43
2018-09-20T20:51:01.176Z,8.83
2018-09-20T20:53:31.784Z,8.80
2018-09-20T20:56:00.725Z,8.90
2018-09-20T20:58:29.764Z,9.30
2018-09-20T21:00:58.420Z,9.50
2018-09-20T21:03:27.187Z,9.60
2018-09-20T21:05:55.873Z,9.47
2018-09-20T21:08:25.027Z,9.10
2018-09-20T21:10:53.921Z,10.27
2018-09-20T21:13:23.609Z,10.30
2018-09-20T21:15:52.724Z,9.73
2018-09-20T21:18:21.580Z,10.90
2018-09-20T21:20:50.454Z,9.97
2018-09-20T21:23:19.401Z,9.90
2018-09-20T21:25:48.352Z,10.40
2018-09-20T21:28:17.156Z,10.77
2018-09-20T21:30:46.236Z,10.77
2018-09-20T21:33:15.363Z,9.80
2018-09-20T21:35:44.491Z,10.53
2018-09-20T21:38:13.393Z,10.47
2018-09-20T21:40:42.257Z,10.60
2018-09-20T21:43:11.322Z,10.40
2018-09-20T21:45:40.500Z,10.03
2018-09-20T21:48:09.431Z,10.53
2018-09-20T21:50:38.174Z,10.10
2018-09-20T21:53:07.209Z,10.50
2018-09-20T21:55:36.386Z,10.87
2018-09-20T21:58:05.755Z,10.70
2018-09-20T22:00:34.609Z,10.80
2018-09-20T22:03:04.999Z,10.97
2018-09-20T22:05:35.077Z,9.67
2018-09-20T22:08:03.837Z,9.60
2018-09-20T22:10:32.807Z,10.03
2018-09-20T22:13:01.640Z,10.30
2018-09-20T22:15:30.836Z,9.60
2018-09-20T22:18:00.419Z,11.03
2018-09-20T22:20:30.573Z,11.33
2018-09-20T22:22:59.519Z,11.17
2018-09-20T22:25:28.267Z,11.20
2018-09-20T22:27:57.302Z,11.67
2018-09-20T22:30:26.150Z,11.40
2018-09-20T22:32:54.949Z,11.93
2018-09-20T22:35:23.981Z,10.43
2018-09-20T22:37:53.729Z,11.00
2018-09-20T22:40:22.516Z,11.07
2018-09-20T22:42:51.245Z,10.60
2018-09-20T22:45:20.070Z,11.20
2018-09-20T22:47:48.897Z,10.43
2018-09-20T22:50:18.444Z,10.87
2018-09-20T22:52:47.338Z,11.13
2018-09-20T22:55:16.104Z,11.00
2018-09-20T22:57:44.928Z,10.13
2018-09-20T23:00:14.997Z,11.30
2018-09-20T23:02:44.497Z,10.47
2018-09-20T23:05:13.383Z,10.13
2018-09-20T23:07:42.095Z,10.20
2018-09-20T23:10:11.187Z,10.50
2018-09-20T23:12:40.202Z,12.50
2018-09-20T23:15:08.914Z,12.13
2018-09-20T23:17:38.033Z,14.00
2018-09-20T23:20:07.123Z,13.60
2018-09-20T23:22:36.653Z,14.13
2018-09-20T23:25:05.610Z,14.20
2018-09-20T23:27:34.933Z,13.90
2018-09-20T23:30:03.790Z,14.37
2018-09-20T23:32:32.771Z,13.40
2018-09-20T23:35:02.740Z,13.60
2018-09-20T23:37:31.701Z,13.30
2018-09-20T23:40:00.786Z,13.73
2018-09-20T23:42:30.116Z,12.90
2018-09-20T23:44:59.403Z,13.30
2018-09-20T23:47:28.293Z,12.20
2018-09-20T23:49:57.065Z,13.37
2018-09-20T23:52:26.133Z,12.67
2018-09-20T23:54:55.051Z,12.10
2018-09-20T23:57:23.880Z,11.77
2018-09-20T23:59:52.727Z,12.27
